createdAt,value
2023-03-28T00:01:29.153Z,19.20
2023-03-28T00:03:57.115Z,19.20
2023-03-28T00:06:26.198Z,19.20
2023-03-28T00:08:53.843Z,19.20
2023-03-28T00:11:21.906Z,19.20
2023-03-28T00:13:58.040Z,19.20
2023-03-28T00:16:26.096Z,19.20
2023-03-28T00:18:53.072Z,19.20
2023-03-28T00:21:27.274Z,19.20
2023-03-28T00:23:55.853Z,19.20
2023-03-28T00:26:25.099Z,19.20
2023-03-28T00:28:51.920Z,19.20
2023-03-28T00:31:19.083Z,19.20
2023-03-28T00:33:47.364Z,19.20
2023-03-28T00:36:18.453Z,19.20
2023-03-28T00:38:45.992Z,19.20
2023-03-28T00:41:16.026Z,19.20
2023-03-28T00:43:45.337Z,19.20
2023-03-28T00:46:27.463Z,19.10
2023-03-28T00:48:58.758Z,19.10
2023-03-28T00:51:29.799Z,19.10
2023-03-28T00:53:59.917Z,19.10
2023-03-28T00:56:30.382Z,19.10
2023-03-28T00:58:58.590Z,19.10
2023-03-28T01:01:25.447Z,19.10
2023-03-28T01:04:02.196Z,19.10
2023-03-28T01:06:36.888Z,19.10
2023-03-28T01:09:07.869Z,19.10
2023-03-28T01:11:36.825Z,19.10
2023-03-28T01:14:04.420Z,19.10
2023-03-28T01:16:31.488Z,19.10
2023-03-28T01:19:02.029Z,19.10
2023-03-28T01:22:06.756Z,19.10
2023-03-28T01:24:57.993Z,19.10
2023-03-28T01:27:39.309Z,19.10
2023-03-28T01:30:17.952Z,19.10
2023-03-28T01:33:19.343Z,19.00
2023-03-28T01:36:34.009Z,19.00
2023-03-28T01:39:16.678Z,19.00
2023-03-28T01:41:52.187Z,19.00
2023-03-28T01:44:29.314Z,19.00
2023-03-28T01:47:01.676Z,19.00
2023-03-28T01:49:41.868Z,19.00
2023-03-28T01:52:31.821Z,19.00
2023-03-28T01:55:10.595Z,19.00
2023-03-28T01:57:48.240Z,19.10
2023-03-28T02:00:21.394Z,19.00
2023-03-28T02:03:05.577Z,19.00
2023-03-28T02:05:34.748Z,19.00
2023-03-28T02:08:04.021Z,19.00
2023-03-28T02:10:32.134Z,19.00
2023-03-28T02:13:14.277Z,19.00
2023-03-28T02:15:44.055Z,19.00
2023-03-28T02:18:17.051Z,19.00
2023-03-28T02:20:45.543Z,19.00
2023-03-28T02:23:19.108Z,18.90
2023-03-28T02:25:46.000Z,19.00
2023-03-28T02:28:14.354Z,19.00
2023-03-28T02:30:40.948Z,19.00
2023-03-28T02:33:30.099Z,19.00
2023-03-28T02:36:10.263Z,19.00
2023-03-28T02:38:49.776Z,19.00
2023-03-28T02:41:29.953Z,18.90
2023-03-28T02:44:24.242Z,18.90
2023-03-28T02:47:24.598Z,18.90
2023-03-28T02:50:15.749Z,18.90
2023-03-28T02:52:51.690Z,18.90
2023-03-28T02:55:28.119Z,18.90
2023-03-28T02:58:10.199Z,18.90
2023-03-28T03:00:39.605Z,18.90
2023-03-28T03:03:10.413Z,18.90
2023-03-28T03:05:37.929Z,18.90
2023-03-28T03:08:04.662Z,18.90
2023-03-28T03:10:31.479Z,18.90
2023-03-28T03:12:58.138Z,18.90
2023-03-28T03:15:25.836Z,18.90
2023-03-28T03:17:52.689Z,18.90
2023-03-28T03:20:19.419Z,18.90
2023-03-28T03:22:46.061Z,18.90
2023-03-28T03:25:14.508Z,18.90
2023-03-28T03:27:41.484Z,18.90
2023-03-28T03:30:09.941Z,18.80
2023-03-28T03:32:36.608Z,18.90
2023-03-28T03:35:03.513Z,18.80
2023-03-28T03:37:30.269Z,18.80
2023-03-28T03:39:56.868Z,18.80
2023-03-28T03:42:23.496Z,18.90
2023-03-28T03:44:50.916Z,18.80
2023-03-28T03:47:19.486Z,18.80
2023-03-28T03:49:46.065Z,18.80
2023-03-28T03:52:12.731Z,19.50
2023-03-28T03:54:39.401Z,18.80
2023-03-28T03:57:06.164Z,18.80
2023-03-28T03:59:32.896Z,18.80
2023-03-28T04:01:59.871Z,18.80
2023-03-28T04:04:27.850Z,18.80
2023-03-28T04:06:57.904Z,18.80
2023-03-28T04:09:28.640Z,18.80
2023-03-28T04:11:55.837Z,18.80
2023-03-28T04:14:22.503Z,18.80
2023-03-28T04:16:53.658Z,18.80
2023-03-28T04:19:20.353Z,18.80
2023-03-28T04:21:48.789Z,18.80
2023-03-28T04:24:16.668Z,18.80
2023-03-28T04:26:45.840Z,18.80
2023-03-28T04:29:12.667Z,18.90
2023-03-28T04:31:39.902Z,18.90
2023-03-28T04:34:07.236Z,19.00
2023-03-28T04:36:33.944Z,19.10
2023-03-28T04:39:02.762Z,19.20
2023-03-28T04:41:31.870Z,19.20
2023-03-28T04:43:58.569Z,19.20
2023-03-28T04:46:25.519Z,19.20
2023-03-28T04:48:56.491Z,19.20
2023-03-28T04:51:24.895Z,19.20
2023-03-28T04:53:51.535Z,20.90
2023-03-28T04:56:18.234Z,19.30
2023-03-28T04:58:44.884Z,19.30
2023-03-28T05:01:11.658Z,19.30
2023-03-28T05:03:38.404Z,19.20
2023-03-28T05:06:05.583Z,19.20
2023-03-28T05:08:32.867Z,19.30
2023-03-28T05:10:59.646Z,19.30
2023-03-28T05:13:26.397Z,19.30
2023-03-28T05:15:53.115Z,19.30
2023-03-28T05:18:19.741Z,19.30
2023-03-28T05:20:46.406Z,19.30
2023-03-28T05:23:13.050Z,19.30
2023-03-28T05:25:39.871Z,19.30
2023-03-28T05:28:07.243Z,19.30
2023-03-28T05:30:33.911Z,19.40
2023-03-28T05:33:00.704Z,19.40
2023-03-28T05:35:27.460Z,19.30
2023-03-28T05:37:54.124Z,19.40
2023-03-28T05:40:20.911Z,19.40
2023-03-28T05:42:47.616Z,19.40
2023-03-28T05:45:14.568Z,19.40
2023-03-28T05:47:41.465Z,19.30
2023-03-28T05:50:08.763Z,19.40
2023-03-28T05:52:35.485Z,19.30
2023-03-28T05:55:02.138Z,19.40
2023-03-28T05:57:28.722Z,19.40
2023-03-28T05:59:55.781Z,19.40
2023-03-28T06:02:24.280Z,19.40
2023-03-28T06:04:53.721Z,19.40
2023-03-28T06:07:31.491Z,19.40
2023-03-28T06:10:08.275Z,19.50
2023-03-28T06:12:35.245Z,19.50
2023-03-28T06:15:01.970Z,19.50
2023-03-28T06:17:28.943Z,19.50
2023-03-28T06:19:55.787Z,19.50
2023-03-28T06:22:22.530Z,19.50
2023-03-28T06:24:49.178Z,19.60
2023-03-28T06:27:16.011Z,19.50
2023-03-28T06:29:42.636Z,19.50
2023-03-28T06:32:09.259Z,19.60
2023-03-28T06:34:36.070Z,19.60
2023-03-28T06:37:02.758Z,19.60
2023-03-28T06:39:29.451Z,19.60
2023-03-28T06:41:56.171Z,19.60
2023-03-28T06:44:22.807Z,19.60
2023-03-28T06:46:49.843Z,19.70
2023-03-28T06:49:16.573Z,19.70
2023-03-28T06:51:43.197Z,19.70
2023-03-28T06:54:09.830Z,19.70
2023-03-28T06:56:36.452Z,19.70
2023-03-28T06:59:05.861Z,19.70
2023-03-28T07:01:32.708Z,19.70
2023-03-28T07:03:59.758Z,19.70
2023-03-28T07:06:27.595Z,19.80
2023-03-28T07:08:56.064Z,19.80
2023-03-28T07:11:23.284Z,19.70
2023-03-28T07:13:50.186Z,19.80
2023-03-28T07:16:17.527Z,19.80
2023-03-28T07:18:44.702Z,19.80
2023-03-28T07:21:14.230Z,19.80
2023-03-28T07:23:41.363Z,19.80
2023-03-28T07:26:09.382Z,19.80
2023-03-28T07:28:36.599Z,19.80
2023-03-28T07:31:04.640Z,19.80
2023-03-28T07:33:37.796Z,19.80
2023-03-28T07:36:16.626Z,19.90
2023-03-28T07:38:43.545Z,19.90
2023-03-28T07:41:11.280Z,19.90
2023-03-28T07:43:39.805Z,19.90
2023-03-28T07:46:09.062Z,19.90
2023-03-28T07:48:37.420Z,19.90
2023-03-28T07:51:06.425Z,19.90
2023-03-28T07:53:33.960Z,19.90
2023-03-28T07:56:01.015Z,19.90
2023-03-28T07:58:27.638Z,19.90
2023-03-28T08:00:54.549Z,19.90
2023-03-28T08:03:23.466Z,19.90
2023-03-28T08:05:53.368Z,19.90
2023-03-28T08:08:20.755Z,20.00
2023-03-28T08:10:51.047Z,20.00
2023-03-28T08:13:20.733Z,20.00
2023-03-28T08:15:54.394Z,20.00
2023-03-28T08:18:22.455Z,20.00
2023-03-28T08:20:49.469Z,20.00
2023-03-28T08:23:16.720Z,20.00
2023-03-28T08:25:44.208Z,20.00
2023-03-28T08:28:11.351Z,20.00
2023-03-28T08:30:38.076Z,20.00
2023-03-28T08:33:04.898Z,20.00
2023-03-28T08:35:32.601Z,20.00
2023-03-28T08:37:59.962Z,20.00
2023-03-28T08:40:28.757Z,20.10
2023-03-28T08:43:15.942Z,20.10
2023-03-28T08:45:52.395Z,20.00
2023-03-28T08:48:31.874Z,20.00
2023-03-28T08:51:04.279Z,20.00
2023-03-28T08:53:35.282Z,20.00
2023-03-28T08:56:04.406Z,20.00
2023-03-28T08:58:42.476Z,20.10
2023-03-28T09:01:10.148Z,20.00
2023-03-28T09:03:36.934Z,20.00
2023-03-28T09:06:13.970Z,20.10
2023-03-28T09:08:43.709Z,20.10
2023-03-28T09:11:45.526Z,20.10
2023-03-28T09:14:26.656Z,20.10
2023-03-28T09:17:04.434Z,20.10
2023-03-28T09:19:49.727Z,20.00
2023-03-28T09:22:34.384Z,20.00
2023-03-28T09:25:22.458Z,20.00
2023-03-28T09:27:54.918Z,20.00
2023-03-28T09:30:26.996Z,20.00
2023-03-28T09:32:58.627Z,20.00
2023-03-28T09:35:27.845Z,20.00
2023-03-28T09:37:59.510Z,20.00
2023-03-28T09:40:29.301Z,20.00
2023-03-28T09:43:14.414Z,20.00
2023-03-28T09:46:04.938Z,19.40
2023-03-28T09:48:40.988Z,20.00
2023-03-28T09:51:15.305Z,20.00
2023-03-28T09:53:42.467Z,20.00
2023-03-28T09:56:34.804Z,19.90
2023-03-28T09:59:04.169Z,20.00
2023-03-28T10:01:37.026Z,20.00
2023-03-28T10:04:14.066Z,19.90
2023-03-28T10:06:42.154Z,19.90
2023-03-28T10:09:27.000Z,19.90
2023-03-28T10:12:03.006Z,19.90
2023-03-28T10:14:39.807Z,20.00
2023-03-28T10:17:31.406Z,20.00
2023-03-28T10:20:22.045Z,20.00
2023-03-28T10:22:51.205Z,20.00
2023-03-28T10:25:33.103Z,20.00
2023-03-28T10:28:04.545Z,20.00
2023-03-28T10:30:33.391Z,20.00
2023-03-28T10:33:11.389Z,20.00
2023-03-28T10:35:41.423Z,20.00
2023-03-28T10:38:16.140Z,20.00
2023-03-28T10:40:43.194Z,20.00
2023-03-28T10:43:14.400Z,20.00
2023-03-28T10:45:46.895Z,20.00
2023-03-28T10:48:16.997Z,20.00
2023-03-28T10:50:44.654Z,20.00
2023-03-28T10:53:58.273Z,19.90
2023-03-28T10:56:33.277Z,20.00
2023-03-28T10:59:17.958Z,19.90
2023-03-28T11:02:11.547Z,20.00
2023-03-28T11:05:15.664Z,19.90
2023-03-28T11:08:07.194Z,19.90
2023-03-28T11:11:04.699Z,19.90
2023-03-28T11:14:12.223Z,19.90
2023-03-28T11:16:47.149Z,19.90
2023-03-28T11:19:33.946Z,19.90
2023-03-28T11:22:21.529Z,19.90
2023-03-28T11:25:23.175Z,19.80
2023-03-28T11:28:12.908Z,19.80
2023-03-28T11:30:42.520Z,19.80
2023-03-28T11:33:13.097Z,19.80
2023-03-28T11:35:47.020Z,19.90
2023-03-28T11:38:22.341Z,19.90
2023-03-28T11:40:54.939Z,19.90
2023-03-28T11:44:16.835Z,19.90
2023-03-28T11:46:57.937Z,20.10
2023-03-28T11:49:35.005Z,19.90
2023-03-28T11:52:08.670Z,19.90
2023-03-28T11:55:03.605Z,19.90
2023-03-28T11:57:51.922Z,20.00
2023-03-28T12:00:43.831Z,20.00
2023-03-28T12:03:30.220Z,20.00
2023-03-28T12:06:18.052Z,20.00
2023-03-28T12:08:54.296Z,20.00
2023-03-28T12:11:50.150Z,20.10
2023-03-28T12:14:36.871Z,20.10
2023-03-28T12:17:15.607Z,20.00
2023-03-28T12:19:42.617Z,20.10
2023-03-28T12:22:16.113Z,20.10
2023-03-28T12:24:56.811Z,20.00
2023-03-28T12:27:37.170Z,20.10
2023-03-28T12:30:30.800Z,20.00
2023-03-28T12:33:24.724Z,20.00
2023-03-28T12:36:01.245Z,20.00
2023-03-28T12:38:35.604Z,20.00
2023-03-28T12:41:05.527Z,20.00
2023-03-28T12:43:53.848Z,20.00
2023-03-28T12:46:46.727Z,20.00
2023-03-28T12:49:16.519Z,20.10
2023-03-28T12:51:48.068Z,20.10
2023-03-28T12:54:14.621Z,20.10
2023-03-28T12:56:44.939Z,20.10
2023-03-28T12:59:39.510Z,20.10
2023-03-28T13:02:19.263Z,20.10
2023-03-28T13:05:01.036Z,20.10
2023-03-28T13:07:46.992Z,20.10
2023-03-28T13:10:18.900Z,20.10
2023-03-28T13:13:06.972Z,20.10
2023-03-28T13:15:34.308Z,20.10
2023-03-28T13:18:31.899Z,20.20
2023-03-28T13:21:00.833Z,20.20
2023-03-28T13:23:34.346Z,20.20
2023-03-28T13:26:04.133Z,20.20
2023-03-28T13:28:43.561Z,20.20
2023-03-28T13:31:18.882Z,20.20
2023-03-28T13:33:55.045Z,20.20
2023-03-28T13:36:26.862Z,20.20
2023-03-28T13:39:08.278Z,20.20
2023-03-28T13:41:41.210Z,20.20
2023-03-28T13:44:17.293Z,20.20
2023-03-28T13:46:47.405Z,20.20
2023-03-28T13:49:36.080Z,20.30
2023-03-28T13:52:17.779Z,20.20
2023-03-28T13:54:46.260Z,20.30
2023-03-28T13:57:16.502Z,20.30
2023-03-28T13:59:46.102Z,20.30
2023-03-28T14:02:43.518Z,20.30
2023-03-28T14:05:26.965Z,20.30
2023-03-28T14:07:55.261Z,20.30
2023-03-28T14:10:28.028Z,20.30
2023-03-28T14:12:57.695Z,20.30
2023-03-28T14:15:27.291Z,20.30
2023-03-28T14:17:55.990Z,20.30
2023-03-28T14:20:22.983Z,20.30
2023-03-28T14:22:59.639Z,20.20
2023-03-28T14:25:27.368Z,20.30
2023-03-28T14:27:56.581Z,20.30
2023-03-28T14:30:29.347Z,20.20
2023-03-28T14:32:58.849Z,20.30
2023-03-28T14:35:29.463Z,20.30
2023-03-28T14:38:01.672Z,20.40
2023-03-28T14:40:33.362Z,20.30
2023-03-28T14:43:19.279Z,20.40
2023-03-28T14:45:51.665Z,20.30
2023-03-28T14:48:23.035Z,20.40
2023-03-28T14:50:52.908Z,22.90
2023-03-28T14:53:25.844Z,20.30
2023-03-28T14:55:54.734Z,20.40
2023-03-28T14:58:23.849Z,20.30
2023-03-28T15:00:57.983Z,20.30
2023-03-28T15:03:38.912Z,20.30
2023-03-28T15:06:08.402Z,20.30
2023-03-28T15:08:37.818Z,20.30
2023-03-28T15:11:35.256Z,20.40
2023-03-28T15:14:07.067Z,20.30
2023-03-28T15:16:39.498Z,20.30
2023-03-28T15:19:15.702Z,20.30
2023-03-28T15:21:54.069Z,20.30
2023-03-28T15:24:21.118Z,20.30
2023-03-28T15:26:53.751Z,19.90
2023-03-28T15:29:22.456Z,19.70
2023-03-28T15:31:49.324Z,19.60
2023-03-28T15:34:22.137Z,19.70
2023-03-28T15:36:54.100Z,19.80
2023-03-28T15:39:27.106Z,19.90
2023-03-28T15:42:19.544Z,20.00
2023-03-28T15:45:10.717Z,20.00
2023-03-28T15:47:38.974Z,20.10
2023-03-28T15:50:08.638Z,20.10
2023-03-28T15:52:35.658Z,20.10
2023-03-28T15:55:05.611Z,20.10
2023-03-28T15:57:32.444Z,20.10
2023-03-28T16:00:00.619Z,20.10
2023-03-28T16:02:31.620Z,20.10
2023-03-28T16:05:25.607Z,20.10
2023-03-28T16:07:53.546Z,20.00
2023-03-28T16:10:23.364Z,20.00
2023-03-28T16:12:51.083Z,20.10
2023-03-28T16:15:18.917Z,20.00
2023-03-28T16:17:47.153Z,20.00
2023-03-28T16:20:16.744Z,19.90
2023-03-28T16:22:44.526Z,19.80
2023-03-28T16:25:11.393Z,19.90
2023-03-28T16:27:38.212Z,19.90
2023-03-28T16:30:09.317Z,20.00
2023-03-28T16:32:36.001Z,20.00
2023-03-28T16:35:02.660Z,20.00
2023-03-28T16:37:29.255Z,20.10
2023-03-28T16:39:55.841Z,20.00
2023-03-28T16:42:24.444Z,20.10
2023-03-28T16:44:51.155Z,20.00
2023-03-28T16:47:17.775Z,20.00
2023-03-28T16:49:44.450Z,19.90
2023-03-28T16:52:11.021Z,20.00
2023-03-28T16:54:37.624Z,20.00
2023-03-28T16:57:04.288Z,20.00
2023-03-28T16:59:30.991Z,19.90
2023-03-28T17:01:57.663Z,19.90
2023-03-28T17:04:24.370Z,19.90
2023-03-28T17:06:51.140Z,20.00
2023-03-28T17:09:17.729Z,20.00
2023-03-28T17:11:44.372Z,20.10
2023-03-28T17:14:11.279Z,20.10
2023-03-28T17:16:40.309Z,20.10
2023-03-28T17:19:07.551Z,20.10
2023-03-28T17:21:34.860Z,20.10
2023-03-28T17:24:01.958Z,20.10
2023-03-28T17:26:28.623Z,20.10
2023-03-28T17:28:58.235Z,20.00
2023-03-28T17:31:25.533Z,20.00
2023-03-28T17:33:52.566Z,19.90
2023-03-28T17:36:27.335Z,19.90
2023-03-28T17:38:57.416Z,19.90
2023-03-28T17:41:25.247Z,19.90
2023-03-28T17:43:53.741Z,19.80
2023-03-28T17:46:21.336Z,19.80
2023-03-28T17:48:48.231Z,19.80
2023-03-28T17:51:15.853Z,19.80
2023-03-28T17:53:44.438Z,19.80
2023-03-28T17:56:11.653Z,19.80
2023-03-28T17:58:38.500Z,19.80
2023-03-28T18:01:16.776Z,19.80
2023-03-28T18:03:45.660Z,19.80
2023-03-28T18:06:13.225Z,19.80
2023-03-28T18:08:40.291Z,19.70
2023-03-28T18:11:13.964Z,19.80
2023-03-28T18:13:41.585Z,19.70
2023-03-28T18:16:11.030Z,19.80
2023-03-28T18:18:38.642Z,19.70
2023-03-28T18:21:07.517Z,19.70
2023-03-28T18:23:35.511Z,19.70
2023-03-28T18:26:02.387Z,19.70
2023-03-28T18:28:29.138Z,19.70
2023-03-28T18:30:57.144Z,19.70
2023-03-28T18:33:23.815Z,19.70
2023-03-28T18:35:50.506Z,19.70
2023-03-28T18:38:17.638Z,19.70
2023-03-28T18:40:44.324Z,19.70
2023-03-28T18:43:11.112Z,19.70
2023-03-28T18:45:37.780Z,19.70
2023-03-28T18:48:05.915Z,19.70
2023-03-28T18:50:32.562Z,19.60
2023-03-28T18:52:59.189Z,19.70
2023-03-28T18:55:25.794Z,19.70
2023-03-28T18:57:52.909Z,19.70
2023-03-28T19:00:20.355Z,19.70
2023-03-28T19:02:48.876Z,19.60
2023-03-28T19:05:16.934Z,19.60
2023-03-28T19:07:44.871Z,19.60
2023-03-28T19:10:13.302Z,19.60
2023-03-28T19:12:41.319Z,19.60
2023-03-28T19:15:10.401Z,19.60
2023-03-28T19:17:38.085Z,19.60
2023-03-28T19:20:12.512Z,19.60
2023-03-28T19:22:40.353Z,19.60
2023-03-28T19:25:09.183Z,19.60
2023-03-28T19:27:36.682Z,19.50
2023-03-28T19:30:04.416Z,19.50
2023-03-28T19:32:32.492Z,19.60
2023-03-28T19:34:59.135Z,19.60
2023-03-28T19:37:25.736Z,19.50
2023-03-28T19:39:52.360Z,19.60
2023-03-28T19:42:20.221Z,19.60
2023-03-28T19:44:46.952Z,19.50
2023-03-28T19:47:13.607Z,19.50
2023-03-28T19:49:40.374Z,19.50
2023-03-28T19:52:09.714Z,19.50
2023-03-28T19:54:37.579Z,19.50
2023-03-28T19:57:08.033Z,19.50
2023-03-28T19:59:35.219Z,19.50
2023-03-28T20:02:01.987Z,19.50
2023-03-28T20:04:28.883Z,19.50
2023-03-28T20:06:55.631Z,19.50
2023-03-28T20:09:23.747Z,19.40
2023-03-28T20:11:50.706Z,19.40
2023-03-28T20:14:19.977Z,19.40
2023-03-28T20:16:47.168Z,19.40
2023-03-28T20:19:13.860Z,19.40
2023-03-28T20:21:40.604Z,19.40
2023-03-28T20:24:07.993Z,19.40
2023-03-28T20:26:34.742Z,19.40
2023-03-28T20:29:01.375Z,19.40
2023-03-28T20:31:28.601Z,19.40
2023-03-28T20:33:55.793Z,19.30
2023-03-28T20:36:22.967Z,19.40
2023-03-28T20:38:49.831Z,19.40
2023-03-28T20:41:18.806Z,19.40
2023-03-28T20:43:49.911Z,19.40
2023-03-28T20:46:20.971Z,19.30
2023-03-28T20:48:56.582Z,19.40
2023-03-28T20:51:23.717Z,19.40
2023-03-28T20:53:54.205Z,19.40
2023-03-28T20:56:21.830Z,19.40
2023-03-28T20:58:50.450Z,19.30
2023-03-28T21:01:17.604Z,19.30
2023-03-28T21:03:53.232Z,19.30
2023-03-28T21:06:21.396Z,19.30
2023-03-28T21:08:49.963Z,19.30
2023-03-28T21:11:19.826Z,19.30
2023-03-28T21:13:46.560Z,19.30
2023-03-28T21:16:17.121Z,19.30
2023-03-28T21:18:44.518Z,19.30
2023-03-28T21:21:13.179Z,19.30
2023-03-28T21:23:40.488Z,19.30
2023-03-28T21:26:09.275Z,19.30
2023-03-28T21:28:36.720Z,19.30
2023-03-28T21:31:07.682Z,19.30
2023-03-28T21:33:36.444Z,19.30
2023-03-28T21:36:04.664Z,19.30
2023-03-28T21:38:31.776Z,19.20
2023-03-28T21:40:58.568Z,19.20
2023-03-28T21:43:25.332Z,19.20
2023-03-28T21:45:52.166Z,19.20
2023-03-28T21:48:19.315Z,19.20
2023-03-28T21:50:53.766Z,19.20
2023-03-28T21:53:21.700Z,19.20
2023-03-28T21:55:48.394Z,19.20
2023-03-28T21:58:15.562Z,19.20
2023-03-28T22:00:42.454Z,19.20
2023-03-28T22:03:09.220Z,19.20
2023-03-28T22:05:42.646Z,19.20
2023-03-28T22:08:12.196Z,19.20
2023-03-28T22:10:45.735Z,19.20
2023-03-28T22:13:13.803Z,19.20
2023-03-28T22:15:41.162Z,19.20
2023-03-28T22:18:09.185Z,19.20
2023-03-28T22:20:37.849Z,19.20
2023-03-28T22:23:05.830Z,19.10
2023-03-28T22:25:35.574Z,19.20
2023-03-28T22:28:08.172Z,19.20
2023-03-28T22:30:35.846Z,19.20
2023-03-28T22:33:03.681Z,19.20
2023-03-28T22:35:31.121Z,19.10
2023-03-28T22:37:57.865Z,19.20
2023-03-28T22:40:24.589Z,19.20
2023-03-28T22:42:53.983Z,19.20
2023-03-28T22:45:26.379Z,19.10
2023-03-28T22:47:53.174Z,19.10
2023-03-28T22:50:19.987Z,19.10
2023-03-28T22:52:50.169Z,19.10
2023-03-28T22:55:17.553Z,19.10
2023-03-28T22:57:44.982Z,19.10
2023-03-28T23:00:13.990Z,19.10
2023-03-28T23:02:41.713Z,19.10
2023-03-28T23:05:09.950Z,19.10
2023-03-28T23:07:37.489Z,19.10
2023-03-28T23:10:08.214Z,19.10
2023-03-28T23:12:35.392Z,19.10
2023-03-28T23:15:02.022Z,19.10
2023-03-28T23:17:29.141Z,19.10
2023-03-28T23:19:55.836Z,19.10
2023-03-28T23:22:23.505Z,19.10
2023-03-28T23:24:50.573Z,19.00
2023-03-28T23:27:20.770Z,19.10
2023-03-28T23:29:47.426Z,19.00
2023-03-28T23:32:14.048Z,19.00
2023-03-28T23:34:40.983Z,19.00
2023-03-28T23:37:07.612Z,19.00
2023-03-28T23:39:34.210Z,19.00
2023-03-28T23:42:01.236Z,19.00
2023-03-28T23:44:27.961Z,19.00
2023-03-28T23:46:56.179Z,19.00
2023-03-28T23:49:23.187Z,19.00
2023-03-28T23:51:50.714Z,19.00
2023-03-28T23:54:18.547Z,19.00
2023-03-28T23:56:45.832Z,19.00
2023-03-28T23:59:12.688Z,19.00
